sensor_id;sensor_type;location;lat;lon;timestamp;P1;durP1;ratioP1;P2;durP2;ratioP2
15271;SDS011;7737;51.578;7.268;2023-01-04T00:03:26;3.47;;;1.23;;
15271;SDS011;7737;51.578;7.268;2023-01-04T00:06:51;4.53;;;1.50;;
15271;SDS011;7737;51.578;7.268;2023-01-04T00:10:16;4.57;;;1.57;;
15271;SDS011;7737;51.578;7.268;2023-01-04T00:13:42;4.18;;;1.30;;
15271;SDS011;7737;51.578;7.268;2023-01-04T00:17:08;5.20;;;1.17;;
15271;SDS011;7737;51.578;7.268;2023-01-04T00:20:34;3.17;;;1.17;;
15271;SDS011;7737;51.578;7.268;2023-01-04T00:23:59;3.65;;;1.30;;
15271;SDS011;7737;51.578;7.268;2023-01-04T00:27:24;4.00;;;1.10;;
15271;SDS011;7737;51.578;7.268;2023-01-04T00:30:49;4.22;;;1.10;;
15271;SDS011;7737;51.578;7.268;2023-01-04T00:34:15;2.38;;;1.10;;
15271;SDS011;7737;51.578;7.268;2023-01-04T00:37:42;4.68;;;1.50;;
15271;SDS011;7737;51.578;7.268;2023-01-04T00:41:08;4.35;;;1.15;;
15271;SDS011;7737;51.578;7.268;2023-01-04T00:44:33;4.20;;;1.10;;
15271;SDS011;7737;51.578;7.268;2023-01-04T00:47:58;3.25;;;1.20;;
15271;SDS011;7737;51.578;7.268;2023-01-04T00:51:24;5.13;;;1.02;;
15271;SDS011;7737;51.578;7.268;2023-01-04T00:54:51;4.53;;;1.17;;
15271;SDS011;7737;51.578;7.268;2023-01-04T00:58:16;4.68;;;1.33;;
15271;SDS011;7737;51.578;7.268;2023-01-04T01:01:43;3.65;;;1.40;;
15271;SDS011;7737;51.578;7.268;2023-01-04T01:05:08;4.15;;;1.10;;
15271;SDS011;7737;51.578;7.268;2023-01-04T01:08:33;4.75;;;1.20;;
15271;SDS011;7737;51.578;7.268;2023-01-04T01:12:00;3.78;;;1.20;;
15271;SDS011;7737;51.578;7.268;2023-01-04T01:15:25;5.07;;;1.25;;
15271;SDS011;7737;51.578;7.268;2023-01-04T01:18:50;4.05;;;1.20;;
15271;SDS011;7737;51.578;7.268;2023-01-04T01:22:16;5.88;;;1.30;;
15271;SDS011;7737;51.578;7.268;2023-01-04T01:25:41;3.55;;;1.00;;
15271;SDS011;7737;51.578;7.268;2023-01-04T01:29:08;2.67;;;0.87;;
15271;SDS011;7737;51.578;7.268;2023-01-04T01:32:33;4.68;;;1.20;;
15271;SDS011;7737;51.578;7.268;2023-01-04T01:35:59;3.27;;;1.10;;
15271;SDS011;7737;51.578;7.268;2023-01-04T01:39:24;5.90;;;1.42;;
15271;SDS011;7737;51.578;7.268;2023-01-04T01:42:49;3.67;;;1.07;;
15271;SDS011;7737;51.578;7.268;2023-01-04T01:46:18;4.27;;;1.20;;
15271;SDS011;7737;51.578;7.268;2023-01-04T01:49:45;4.88;;;1.20;;
15271;SDS011;7737;51.578;7.268;2023-01-04T01:53:14;2.42;;;0.90;;
15271;SDS011;7737;51.578;7.268;2023-01-04T01:56:43;4.40;;;1.40;;
15271;SDS011;7737;51.578;7.268;2023-01-04T02:00:12;5.07;;;1.40;;
15271;SDS011;7737;51.578;7.268;2023-01-04T02:03:40;6.80;;;1.50;;
15271;SDS011;7737;51.578;7.268;2023-01-04T02:07:08;3.60;;;1.15;;
15271;SDS011;7737;51.578;7.268;2023-01-04T02:10:34;2.17;;;1.30;;
15271;SDS011;7737;51.578;7.268;2023-01-04T02:13:59;5.20;;;1.13;;
15271;SDS011;7737;51.578;7.268;2023-01-04T02:17:28;2.35;;;1.00;;
15271;SDS011;7737;51.578;7.268;2023-01-04T02:21:00;4.07;;;1.20;;
15271;SDS011;7737;51.578;7.268;2023-01-04T02:24:40;4.77;;;1.30;;
15271;SDS011;7737;51.578;7.268;2023-01-04T02:28:31;2.17;;;1.30;;
15271;SDS011;7737;51.578;7.268;2023-01-04T02:32:21;5.18;;;1.20;;
15271;SDS011;7737;51.578;7.268;2023-01-04T02:35:58;7.40;;;1.98;;
15271;SDS011;7737;51.578;7.268;2023-01-04T02:39:32;4.10;;;1.40;;
15271;SDS011;7737;51.578;7.268;2023-01-04T02:43:04;4.37;;;1.27;;
15271;SDS011;7737;51.578;7.268;2023-01-04T02:46:54;3.20;;;1.15;;
15271;SDS011;7737;51.578;7.268;2023-01-04T02:50:49;6.13;;;1.50;;
15271;SDS011;7737;51.578;7.268;2023-01-04T02:54:16;5.20;;;1.47;;
15271;SDS011;7737;51.578;7.268;2023-01-04T02:57:43;4.40;;;1.30;;
15271;SDS011;7737;51.578;7.268;2023-01-04T03:01:31;4.87;;;1.50;;
15271;SDS011;7737;51.578;7.268;2023-01-04T03:05:30;5.00;;;1.33;;
15271;SDS011;7737;51.578;7.268;2023-01-04T03:09:05;4.10;;;1.20;;
15271;SDS011;7737;51.578;7.268;2023-01-04T03:12:36;3.20;;;1.30;;
15271;SDS011;7737;51.578;7.268;2023-01-04T03:16:05;4.07;;;1.20;;
15271;SDS011;7737;51.578;7.268;2023-01-04T03:19:35;4.60;;;1.48;;
15271;SDS011;7737;51.578;7.268;2023-01-04T03:23:03;4.27;;;1.37;;
15271;SDS011;7737;51.578;7.268;2023-01-04T03:26:50;5.05;;;1.13;;
15271;SDS011;7737;51.578;7.268;2023-01-04T03:30:36;2.88;;;1.50;;
15271;SDS011;7737;51.578;7.268;2023-01-04T03:34:34;2.73;;;1.00;;
15271;SDS011;7737;51.578;7.268;2023-01-04T03:38:07;3.50;;;1.25;;
15271;SDS011;7737;51.578;7.268;2023-01-04T03:41:56;5.32;;;1.30;;
15271;SDS011;7737;51.578;7.268;2023-01-04T03:45:43;3.13;;;1.02;;
15271;SDS011;7737;51.578;7.268;2023-01-04T03:49:32;3.13;;;1.20;;
15271;SDS011;7737;51.578;7.268;2023-01-04T03:53:04;3.10;;;1.20;;
15271;SDS011;7737;51.578;7.268;2023-01-04T03:56:34;3.95;;;1.20;;
15271;SDS011;7737;51.578;7.268;2023-01-04T04:00:02;3.77;;;1.20;;
15271;SDS011;7737;51.578;7.268;2023-01-04T04:03:29;5.60;;;1.67;;
15271;SDS011;7737;51.578;7.268;2023-01-04T04:07:14;3.30;;;1.50;;
15271;SDS011;7737;51.578;7.268;2023-01-04T04:10:55;3.88;;;1.60;;
15271;SDS011;7737;51.578;7.268;2023-01-04T04:14:20;4.87;;;1.40;;
15271;SDS011;7737;51.578;7.268;2023-01-04T04:17:45;4.97;;;1.30;;
15271;SDS011;7737;51.578;7.268;2023-01-04T04:21:12;4.18;;;1.10;;
15271;SDS011;7737;51.578;7.268;2023-01-04T04:24:38;5.18;;;1.20;;
15271;SDS011;7737;51.578;7.268;2023-01-04T04:28:03;4.53;;;1.00;;
15271;SDS011;7737;51.578;7.268;2023-01-04T04:31:28;2.53;;;1.13;;
15271;SDS011;7737;51.578;7.268;2023-01-04T04:34:53;2.65;;;1.02;;
15271;SDS011;7737;51.578;7.268;2023-01-04T04:38:19;4.95;;;1.15;;
15271;SDS011;7737;51.578;7.268;2023-01-04T04:41:46;2.30;;;1.10;;
15271;SDS011;7737;51.578;7.268;2023-01-04T04:45:10;2.38;;;0.90;;
15271;SDS011;7737;51.578;7.268;2023-01-04T04:48:35;3.58;;;1.17;;
15271;SDS011;7737;51.578;7.268;2023-01-04T04:52:00;3.40;;;0.90;;
15271;SDS011;7737;51.578;7.268;2023-01-04T04:55:25;3.03;;;0.98;;
15271;SDS011;7737;51.578;7.268;2023-01-04T04:58:51;3.63;;;1.00;;
15271;SDS011;7737;51.578;7.268;2023-01-04T05:02:16;2.97;;;1.10;;
15271;SDS011;7737;51.578;7.268;2023-01-04T05:05:42;4.75;;;1.05;;
15271;SDS011;7737;51.578;7.268;2023-01-04T05:09:07;2.80;;;0.70;;
15271;SDS011;7737;51.578;7.268;2023-01-04T05:12:32;2.28;;;0.93;;
15271;SDS011;7737;51.578;7.268;2023-01-04T05:15:59;3.33;;;1.10;;
15271;SDS011;7737;51.578;7.268;2023-01-04T05:19:25;2.30;;;0.98;;
15271;SDS011;7737;51.578;7.268;2023-01-04T05:22:51;3.95;;;0.80;;
15271;SDS011;7737;51.578;7.268;2023-01-04T05:26:15;1.75;;;0.90;;
15271;SDS011;7737;51.578;7.268;2023-01-04T05:29:41;2.23;;;1.00;;
15271;SDS011;7737;51.578;7.268;2023-01-04T05:33:21;1.50;;;0.90;;
15271;SDS011;7737;51.578;7.268;2023-01-04T05:36:47;2.78;;;0.90;;
15271;SDS011;7737;51.578;7.268;2023-01-04T05:40:12;2.58;;;1.02;;
15271;SDS011;7737;51.578;7.268;2023-01-04T05:43:51;4.70;;;0.90;;
15271;SDS011;7737;51.578;7.268;2023-01-04T05:47:16;1.55;;;1.10;;
15271;SDS011;7737;51.578;7.268;2023-01-04T05:50:42;2.40;;;1.00;;
15271;SDS011;7737;51.578;7.268;2023-01-04T05:54:07;2.92;;;1.20;;
15271;SDS011;7737;51.578;7.268;2023-01-04T05:57:32;1.83;;;0.90;;
15271;SDS011;7737;51.578;7.268;2023-01-04T06:00:57;1.45;;;0.80;;
15271;SDS011;7737;51.578;7.268;2023-01-04T06:04:22;3.83;;;0.82;;
15271;SDS011;7737;51.578;7.268;2023-01-04T06:07:49;1.90;;;0.90;;
15271;SDS011;7737;51.578;7.268;2023-01-04T06:11:15;1.40;;;0.70;;
15271;SDS011;7737;51.578;7.268;2023-01-04T06:14:41;2.25;;;0.75;;
15271;SDS011;7737;51.578;7.268;2023-01-04T06:18:06;2.88;;;0.70;;
15271;SDS011;7737;51.578;7.268;2023-01-04T06:21:31;2.17;;;0.70;;
15271;SDS011;7737;51.578;7.268;2023-01-04T06:24:58;1.00;;;0.63;;
15271;SDS011;7737;51.578;7.268;2023-01-04T06:28:23;2.00;;;0.80;;
15271;SDS011;7737;51.578;7.268;2023-01-04T06:31:49;1.92;;;0.57;;
15271;SDS011;7737;51.578;7.268;2023-01-04T06:35:14;1.25;;;0.60;;
15271;SDS011;7737;51.578;7.268;2023-01-04T06:38:39;4.97;;;0.82;;
15271;SDS011;7737;51.578;7.268;2023-01-04T06:42:05;2.45;;;0.60;;
15271;SDS011;7737;51.578;7.268;2023-01-04T06:45:30;1.77;;;0.65;;
15271;SDS011;7737;51.578;7.268;2023-01-04T06:48:55;1.40;;;0.73;;
15271;SDS011;7737;51.578;7.268;2023-01-04T06:52:20;2.25;;;0.80;;
15271;SDS011;7737;51.578;7.268;2023-01-04T06:55:46;1.98;;;0.65;;
15271;SDS011;7737;51.578;7.268;2023-01-04T06:59:12;2.15;;;0.60;;
15271;SDS011;7737;51.578;7.268;2023-01-04T07:02:38;1.27;;;0.85;;
15271;SDS011;7737;51.578;7.268;2023-01-04T07:06:03;2.15;;;0.80;;
15271;SDS011;7737;51.578;7.268;2023-01-04T07:09:28;0.80;;;0.60;;
15271;SDS011;7737;51.578;7.268;2023-01-04T07:12:54;1.42;;;0.70;;
15271;SDS011;7737;51.578;7.268;2023-01-04T07:16:20;2.00;;;0.50;;
15271;SDS011;7737;51.578;7.268;2023-01-04T07:19:45;0.93;;;0.60;;
15271;SDS011;7737;51.578;7.268;2023-01-04T07:23:10;1.40;;;0.52;;
15271;SDS011;7737;51.578;7.268;2023-01-04T07:26:35;1.90;;;0.50;;
15271;SDS011;7737;51.578;7.268;2023-01-04T07:30:00;1.60;;;0.70;;
15271;SDS011;7737;51.578;7.268;2023-01-04T07:33:30;0.60;;;0.50;;
15271;SDS011;7737;51.578;7.268;2023-01-04T07:36:55;1.05;;;0.47;;
15271;SDS011;7737;51.578;7.268;2023-01-04T07:40:20;0.77;;;0.60;;
15271;SDS011;7737;51.578;7.268;2023-01-04T07:43:45;2.47;;;0.80;;
15271;SDS011;7737;51.578;7.268;2023-01-04T07:47:10;1.75;;;0.55;;
15271;SDS011;7737;51.578;7.268;2023-01-04T07:50:37;2.10;;;0.80;;
15271;SDS011;7737;51.578;7.268;2023-01-04T07:54:02;1.58;;;0.70;;
15271;SDS011;7737;51.578;7.268;2023-01-04T07:57:27;1.65;;;0.80;;
15271;SDS011;7737;51.578;7.268;2023-01-04T08:00:56;0.90;;;0.60;;
15271;SDS011;7737;51.578;7.268;2023-01-04T08:04:21;1.90;;;0.60;;
15271;SDS011;7737;51.578;7.268;2023-01-04T08:07:50;1.95;;;0.60;;
15271;SDS011;7737;51.578;7.268;2023-01-04T08:11:16;2.10;;;0.70;;
15271;SDS011;7737;51.578;7.268;2023-01-04T08:14:41;1.33;;;0.60;;
15271;SDS011;7737;51.578;7.268;2023-01-04T08:18:06;1.67;;;0.60;;
15271;SDS011;7737;51.578;7.268;2023-01-04T08:21:33;1.17;;;0.40;;
15271;SDS011;7737;51.578;7.268;2023-01-04T08:24:59;0.88;;;0.50;;
15271;SDS011;7737;51.578;7.268;2023-01-04T08:28:28;1.40;;;0.40;;
15271;SDS011;7737;51.578;7.268;2023-01-04T08:31:54;1.08;;;0.50;;
15271;SDS011;7737;51.578;7.268;2023-01-04T08:35:19;1.00;;;0.50;;
15271;SDS011;7737;51.578;7.268;2023-01-04T08:38:45;2.50;;;0.60;;
15271;SDS011;7737;51.578;7.268;2023-01-04T08:42:11;1.73;;;0.50;;
15271;SDS011;7737;51.578;7.268;2023-01-04T08:45:36;0.77;;;0.50;;
15271;SDS011;7737;51.578;7.268;2023-01-04T08:49:01;0.45;;;0.45;;
15271;SDS011;7737;51.578;7.268;2023-01-04T08:52:26;1.20;;;0.50;;
15271;SDS011;7737;51.578;7.268;2023-01-04T08:55:52;0.43;;;0.40;;
15271;SDS011;7737;51.578;7.268;2023-01-04T08:59:19;0.82;;;0.47;;
15271;SDS011;7737;51.578;7.268;2023-01-04T09:02:45;2.33;;;0.50;;
15271;SDS011;7737;51.578;7.268;2023-01-04T09:06:11;0.50;;;0.40;;
15271;SDS011;7737;51.578;7.268;2023-01-04T09:09:37;1.95;;;0.57;;
15271;SDS011;7737;51.578;7.268;2023-01-04T09:13:03;1.60;;;1.00;;
15271;SDS011;7737;51.578;7.268;2023-01-04T09:16:30;1.20;;;0.60;;
15271;SDS011;7737;51.578;7.268;2023-01-04T09:19:55;1.27;;;0.75;;
15271;SDS011;7737;51.578;7.268;2023-01-04T09:23:20;1.65;;;1.23;;
15271;SDS011;7737;51.578;7.268;2023-01-04T09:26:46;1.52;;;0.68;;
15271;SDS011;7737;51.578;7.268;2023-01-04T09:30:11;1.20;;;0.80;;
15271;SDS011;7737;51.578;7.268;2023-01-04T09:33:39;1.98;;;0.80;;
15271;SDS011;7737;51.578;7.268;2023-01-04T09:37:04;2.55;;;0.70;;
15271;SDS011;7737;51.578;7.268;2023-01-04T09:40:30;2.72;;;0.98;;
15271;SDS011;7737;51.578;7.268;2023-01-04T09:44:01;1.80;;;1.17;;
15271;SDS011;7737;51.578;7.268;2023-01-04T09:47:35;1.20;;;0.63;;
15271;SDS011;7737;51.578;7.268;2023-01-04T09:51:09;1.27;;;0.80;;
15271;SDS011;7737;51.578;7.268;2023-01-04T09:54:40;2.15;;;0.75;;
15271;SDS011;7737;51.578;7.268;2023-01-04T09:58:16;2.65;;;1.20;;
15271;SDS011;7737;51.578;7.268;2023-01-04T10:01:47;1.08;;;0.70;;
15271;SDS011;7737;51.578;7.268;2023-01-04T10:05:15;1.42;;;0.70;;
15271;SDS011;7737;51.578;7.268;2023-01-04T10:08:42;1.67;;;0.63;;
15271;SDS011;7737;51.578;7.268;2023-01-04T10:12:12;4.50;;;1.08;;
15271;SDS011;7737;51.578;7.268;2023-01-04T10:15:48;1.52;;;0.90;;
15271;SDS011;7737;51.578;7.268;2023-01-04T10:19:33;2.50;;;0.88;;
15271;SDS011;7737;51.578;7.268;2023-01-04T10:23:23;1.25;;;0.70;;
15271;SDS011;7737;51.578;7.268;2023-01-04T10:27:12;3.17;;;0.88;;
15271;SDS011;7737;51.578;7.268;2023-01-04T10:30:52;1.58;;;0.65;;
15271;SDS011;7737;51.578;7.268;2023-01-04T10:34:23;2.08;;;0.80;;
15271;SDS011;7737;51.578;7.268;2023-01-04T10:37:51;2.45;;;0.85;;
15271;SDS011;7737;51.578;7.268;2023-01-04T10:41:23;2.20;;;0.88;;
15271;SDS011;7737;51.578;7.268;2023-01-04T10:45:00;2.20;;;0.75;;
15271;SDS011;7737;51.578;7.268;2023-01-04T10:48:32;1.23;;;0.73;;
15271;SDS011;7737;51.578;7.268;2023-01-04T10:52:07;3.08;;;0.90;;
15271;SDS011;7737;51.578;7.268;2023-01-04T10:55:39;2.45;;;1.00;;
15271;SDS011;7737;51.578;7.268;2023-01-04T10:59:12;2.40;;;0.70;;
15271;SDS011;7737;51.578;7.268;2023-01-04T11:02:42;1.83;;;0.90;;
15271;SDS011;7737;51.578;7.268;2023-01-04T11:06:13;1.55;;;0.90;;
15271;SDS011;7737;51.578;7.268;2023-01-04T11:09:45;2.35;;;0.70;;
15271;SDS011;7737;51.578;7.268;2023-01-04T11:13:15;2.30;;;0.90;;
15271;SDS011;7737;51.578;7.268;2023-01-04T11:16:41;2.30;;;0.77;;
15271;SDS011;7737;51.578;7.268;2023-01-04T11:20:08;1.60;;;0.95;;
15271;SDS011;7737;51.578;7.268;2023-01-04T11:23:36;1.38;;;0.60;;
15271;SDS011;7737;51.578;7.268;2023-01-04T11:27:05;2.38;;;0.90;;
15271;SDS011;7737;51.578;7.268;2023-01-04T11:30:37;2.45;;;0.98;;
15271;SDS011;7737;51.578;7.268;2023-01-04T11:34:09;1.67;;;0.80;;
15271;SDS011;7737;51.578;7.268;2023-01-04T11:37:35;1.70;;;0.80;;
15271;SDS011;7737;51.578;7.268;2023-01-04T11:41:00;1.98;;;0.95;;
15271;SDS011;7737;51.578;7.268;2023-01-04T11:44:32;1.90;;;0.90;;
15271;SDS011;7737;51.578;7.268;2023-01-04T11:47:57;2.30;;;0.95;;
15271;SDS011;7737;51.578;7.268;2023-01-04T11:51:33;2.08;;;0.80;;
15271;SDS011;7737;51.578;7.268;2023-01-04T11:55:14;3.05;;;1.20;;
15271;SDS011;7737;51.578;7.268;2023-01-04T11:58:44;1.60;;;0.93;;
15271;SDS011;7737;51.578;7.268;2023-01-04T12:02:39;1.88;;;0.98;;
15271;SDS011;7737;51.578;7.268;2023-01-04T12:06:06;3.45;;;1.00;;
15271;SDS011;7737;51.578;7.268;2023-01-04T12:09:39;1.50;;;1.00;;
15271;SDS011;7737;51.578;7.268;2023-01-04T12:13:04;2.83;;;1.13;;
15271;SDS011;7737;51.578;7.268;2023-01-04T12:16:45;3.13;;;1.10;;
15271;SDS011;7737;51.578;7.268;2023-01-04T12:20:15;1.65;;;0.98;;
15271;SDS011;7737;51.578;7.268;2023-01-04T12:23:43;3.10;;;1.30;;
15271;SDS011;7737;51.578;7.268;2023-01-04T12:27:10;1.65;;;0.80;;
15271;SDS011;7737;51.578;7.268;2023-01-04T12:30:52;2.03;;;0.88;;
15271;SDS011;7737;51.578;7.268;2023-01-04T12:34:38;2.28;;;0.88;;
15271;SDS011;7737;51.578;7.268;2023-01-04T12:42:10;2.42;;;0.90;;
15271;SDS011;7737;51.578;7.268;2023-01-04T12:50:21;2.03;;;1.17;;
15271;SDS011;7737;51.578;7.268;2023-01-04T12:53:51;2.28;;;0.85;;
15271;SDS011;7737;51.578;7.268;2023-01-04T12:57:21;1.40;;;1.02;;
15271;SDS011;7737;51.578;7.268;2023-01-04T13:01:07;3.20;;;1.00;;
15271;SDS011;7737;51.578;7.268;2023-01-04T13:04:45;2.15;;;0.90;;
15271;SDS011;7737;51.578;7.268;2023-01-04T13:08:13;1.42;;;1.10;;
15271;SDS011;7737;51.578;7.268;2023-01-04T13:11:59;1.65;;;0.80;;
15271;SDS011;7737;51.578;7.268;2023-01-04T13:15:40;1.25;;;0.90;;
15271;SDS011;7737;51.578;7.268;2023-01-04T13:19:11;1.67;;;0.88;;
15271;SDS011;7737;51.578;7.268;2023-01-04T13:22:46;0.85;;;0.82;;
15271;SDS011;7737;51.578;7.268;2023-01-04T13:29:58;1.58;;;1.00;;
15271;SDS011;7737;51.578;7.268;2023-01-04T13:33:25;1.30;;;1.20;;
15271;SDS011;7737;51.578;7.268;2023-01-04T13:36:54;1.70;;;1.10;;
15271;SDS011;7737;51.578;7.268;2023-01-04T13:40:23;1.42;;;1.20;;
15271;SDS011;7737;51.578;7.268;2023-01-04T13:43:55;1.30;;;1.20;;
15271;SDS011;7737;51.578;7.268;2023-01-04T13:47:29;1.83;;;1.50;;
15271;SDS011;7737;51.578;7.268;2023-01-04T13:51:02;1.40;;;1.30;;
15271;SDS011;7737;51.578;7.268;2023-01-04T13:54:44;1.90;;;1.50;;
15271;SDS011;7737;51.578;7.268;2023-01-04T13:58:15;1.85;;;1.75;;
15271;SDS011;7737;51.578;7.268;2023-01-04T14:01:40;2.03;;;1.65;;
15271;SDS011;7737;51.578;7.268;2023-01-04T14:05:12;1.95;;;1.50;;
15271;SDS011;7737;51.578;7.268;2023-01-04T14:08:47;2.58;;;1.73;;
15271;SDS011;7737;51.578;7.268;2023-01-04T14:12:16;1.65;;;1.55;;
15271;SDS011;7737;51.578;7.268;2023-01-04T14:15:42;3.35;;;1.90;;
15271;SDS011;7737;51.578;7.268;2023-01-04T14:19:26;1.92;;;1.55;;
15271;SDS011;7737;51.578;7.268;2023-01-04T14:22:59;1.35;;;1.20;;
15271;SDS011;7737;51.578;7.268;2023-01-04T14:26:28;1.70;;;1.33;;
15271;SDS011;7737;51.578;7.268;2023-01-04T14:29:54;1.58;;;1.30;;
15271;SDS011;7737;51.578;7.268;2023-01-04T14:33:21;1.55;;;1.40;;
15271;SDS011;7737;51.578;7.268;2023-01-04T14:36:48;2.08;;;1.88;;
15271;SDS011;7737;51.578;7.268;2023-01-04T14:40:17;2.10;;;1.90;;
15271;SDS011;7737;51.578;7.268;2023-01-04T14:43:48;1.60;;;1.50;;
15271;SDS011;7737;51.578;7.268;2023-01-04T14:47:13;1.73;;;1.63;;
15271;SDS011;7737;51.578;7.268;2023-01-04T14:50:38;1.73;;;1.63;;
15271;SDS011;7737;51.578;7.268;2023-01-04T14:54:08;2.00;;;1.80;;
15271;SDS011;7737;51.578;7.268;2023-01-04T14:57:39;2.63;;;2.10;;
15271;SDS011;7737;51.578;7.268;2023-01-04T15:01:04;1.73;;;1.63;;
15271;SDS011;7737;51.578;7.268;2023-01-04T15:04:29;2.33;;;2.00;;
15271;SDS011;7737;51.578;7.268;2023-01-04T15:07:54;1.60;;;1.50;;
15271;SDS011;7737;51.578;7.268;2023-01-04T15:11:19;1.30;;;1.20;;
15271;SDS011;7737;51.578;7.268;2023-01-04T15:14:46;3.42;;;1.40;;
15271;SDS011;7737;51.578;7.268;2023-01-04T15:18:11;2.17;;;1.20;;
15271;SDS011;7737;51.578;7.268;2023-01-04T15:21:36;3.00;;;1.08;;
15271;SDS011;7737;51.578;7.268;2023-01-04T15:25:04;4.30;;;1.35;;
15271;SDS011;7737;51.578;7.268;2023-01-04T15:28:29;2.90;;;1.10;;
15271;SDS011;7737;51.578;7.268;2023-01-04T15:31:56;2.33;;;1.00;;
15271;SDS011;7737;51.578;7.268;2023-01-04T15:35:21;3.80;;;0.90;;
15271;SDS011;7737;51.578;7.268;2023-01-04T15:38:46;3.70;;;1.33;;
15271;SDS011;7737;51.578;7.268;2023-01-04T15:42:11;1.90;;;1.10;;
15271;SDS011;7737;51.578;7.268;2023-01-04T15:45:37;2.92;;;1.50;;
15271;SDS011;7737;51.578;7.268;2023-01-04T15:49:04;2.50;;;1.73;;
15271;SDS011;7737;51.578;7.268;2023-01-04T15:52:30;3.53;;;2.33;;
15271;SDS011;7737;51.578;7.268;2023-01-04T15:56:02;3.22;;;2.15;;
15271;SDS011;7737;51.578;7.268;2023-01-04T15:59:27;3.20;;;1.55;;
15271;SDS011;7737;51.578;7.268;2023-01-04T16:02:52;2.10;;;1.60;;
15271;SDS011;7737;51.578;7.268;2023-01-04T16:06:19;3.47;;;1.70;;
15271;SDS011;7737;51.578;7.268;2023-01-04T16:09:44;3.97;;;1.90;;
15271;SDS011;7737;51.578;7.268;2023-01-04T16:13:09;4.20;;;1.95;;
15271;SDS011;7737;51.578;7.268;2023-01-04T16:16:34;5.10;;;1.90;;
15271;SDS011;7737;51.578;7.268;2023-01-04T16:19:59;4.05;;;1.48;;
15271;SDS011;7737;51.578;7.268;2023-01-04T16:23:26;2.80;;;1.80;;
15271;SDS011;7737;51.578;7.268;2023-01-04T16:26:51;4.20;;;1.55;;
15271;SDS011;7737;51.578;7.268;2023-01-04T16:30:16;5.50;;;1.90;;
15271;SDS011;7737;51.578;7.268;2023-01-04T16:33:41;5.32;;;1.88;;
15271;SDS011;7737;51.578;7.268;2023-01-04T16:37:06;4.57;;;1.67;;
15271;SDS011;7737;51.578;7.268;2023-01-04T16:40:33;6.28;;;2.90;;
15271;SDS011;7737;51.578;7.268;2023-01-04T16:43:59;3.78;;;1.70;;
15271;SDS011;7737;51.578;7.268;2023-01-04T16:47:24;4.63;;;2.03;;
15271;SDS011;7737;51.578;7.268;2023-01-04T16:50:49;5.07;;;1.75;;
15271;SDS011;7737;51.578;7.268;2023-01-04T16:54:16;7.18;;;2.22;;
15271;SDS011;7737;51.578;7.268;2023-01-04T16:57:43;6.55;;;2.22;;
15271;SDS011;7737;51.578;7.268;2023-01-04T17:01:10;4.78;;;1.90;;
15271;SDS011;7737;51.578;7.268;2023-01-04T17:04:36;6.80;;;2.13;;
15271;SDS011;7737;51.578;7.268;2023-01-04T17:08:04;6.88;;;2.10;;
15271;SDS011;7737;51.578;7.268;2023-01-04T17:11:31;8.27;;;2.30;;
15271;SDS011;7737;51.578;7.268;2023-01-04T17:14:58;5.88;;;2.28;;
15271;SDS011;7737;51.578;7.268;2023-01-04T17:18:23;8.13;;;2.05;;
15271;SDS011;7737;51.578;7.268;2023-01-04T17:21:49;6.22;;;1.98;;
15271;SDS011;7737;51.578;7.268;2023-01-04T17:25:14;8.07;;;2.10;;
15271;SDS011;7737;51.578;7.268;2023-01-04T17:28:40;4.28;;;1.50;;
15271;SDS011;7737;51.578;7.268;2023-01-04T17:32:07;5.50;;;1.70;;
15271;SDS011;7737;51.578;7.268;2023-01-04T17:35:34;6.18;;;2.05;;
15271;SDS011;7737;51.578;7.268;2023-01-04T17:38:59;3.67;;;1.45;;
15271;SDS011;7737;51.578;7.268;2023-01-04T17:42:24;3.67;;;1.80;;
15271;SDS011;7737;51.578;7.268;2023-01-04T17:45:49;3.60;;;1.58;;
15271;SDS011;7737;51.578;7.268;2023-01-04T17:49:16;4.88;;;1.83;;
15271;SDS011;7737;51.578;7.268;2023-01-04T17:52:42;5.22;;;2.03;;
15271;SDS011;7737;51.578;7.268;2023-01-04T17:56:08;5.57;;;2.15;;
15271;SDS011;7737;51.578;7.268;2023-01-04T17:59:34;5.38;;;1.73;;
15271;SDS011;7737;51.578;7.268;2023-01-04T18:02:59;8.95;;;2.20;;
15271;SDS011;7737;51.578;7.268;2023-01-04T18:06:28;7.72;;;2.08;;
15271;SDS011;7737;51.578;7.268;2023-01-04T18:09:53;6.63;;;1.92;;
15271;SDS011;7737;51.578;7.268;2023-01-04T18:13:19;8.95;;;2.03;;
15271;SDS011;7737;51.578;7.268;2023-01-04T18:16:45;8.52;;;2.03;;
15271;SDS011;7737;51.578;7.268;2023-01-04T18:20:10;5.75;;;2.00;;
15271;SDS011;7737;51.578;7.268;2023-01-04T18:23:41;6.75;;;2.40;;
15271;SDS011;7737;51.578;7.268;2023-01-04T18:27:08;7.32;;;2.30;;
15271;SDS011;7737;51.578;7.268;2023-01-04T18:30:34;8.68;;;2.50;;
15271;SDS011;7737;51.578;7.268;2023-01-04T18:33:59;8.80;;;2.78;;
15271;SDS011;7737;51.578;7.268;2023-01-04T18:37:29;10.98;;;2.65;;
15271;SDS011;7737;51.578;7.268;2023-01-04T18:40:55;10.15;;;2.53;;
15271;SDS011;7737;51.578;7.268;2023-01-04T18:44:20;10.40;;;2.65;;
15271;SDS011;7737;51.578;7.268;2023-01-04T18:47:45;7.75;;;2.13;;
15271;SDS011;7737;51.578;7.268;2023-01-04T18:51:14;10.95;;;2.70;;
15271;SDS011;7737;51.578;7.268;2023-01-04T18:54:39;11.20;;;2.92;;
15271;SDS011;7737;51.578;7.268;2023-01-04T18:58:06;9.52;;;2.83;;
15271;SDS011;7737;51.578;7.268;2023-01-04T19:01:31;10.85;;;2.97;;
15271;SDS011;7737;51.578;7.268;2023-01-04T19:04:58;15.95;;;3.45;;
15271;SDS011;7737;51.578;7.268;2023-01-04T19:08:23;16.70;;;3.67;;
15271;SDS011;7737;51.578;7.268;2023-01-04T19:11:48;14.38;;;3.65;;
15271;SDS011;7737;51.578;7.268;2023-01-04T19:15:15;10.43;;;3.05;;
15271;SDS011;7737;51.578;7.268;2023-01-04T19:18:40;15.35;;;3.70;;
15271;SDS011;7737;51.578;7.268;2023-01-04T19:22:07;14.75;;;3.40;;
15271;SDS011;7737;51.578;7.268;2023-01-04T19:25:32;14.45;;;3.70;;
15271;SDS011;7737;51.578;7.268;2023-01-04T19:28:57;12.60;;;3.85;;
15271;SDS011;7737;51.578;7.268;2023-01-04T19:32:23;15.82;;;3.60;;
15271;SDS011;7737;51.578;7.268;2023-01-04T19:35:49;16.77;;;4.03;;
15271;SDS011;7737;51.578;7.268;2023-01-04T19:39:14;15.27;;;3.78;;
15271;SDS011;7737;51.578;7.268;2023-01-04T19:42:39;18.83;;;3.78;;
15271;SDS011;7737;51.578;7.268;2023-01-04T19:46:06;18.50;;;3.92;;
15271;SDS011;7737;51.578;7.268;2023-01-04T19:49:33;14.40;;;4.18;;
15271;SDS011;7737;51.578;7.268;2023-01-04T19:52:58;19.23;;;4.47;;
15271;SDS011;7737;51.578;7.268;2023-01-04T19:56:24;19.73;;;4.50;;
15271;SDS011;7737;51.578;7.268;2023-01-04T19:59:49;15.90;;;4.28;;
15271;SDS011;7737;51.578;7.268;2023-01-04T20:03:14;19.60;;;4.55;;
15271;SDS011;7737;51.578;7.268;2023-01-04T20:06:41;20.77;;;4.40;;
15271;SDS011;7737;51.578;7.268;2023-01-04T20:10:08;19.90;;;4.57;;
15271;SDS011;7737;51.578;7.268;2023-01-04T20:13:33;18.55;;;4.00;;
15271;SDS011;7737;51.578;7.268;2023-01-04T20:16:58;20.40;;;4.80;;
15271;SDS011;7737;51.578;7.268;2023-01-04T20:20:24;19.08;;;4.43;;
15271;SDS011;7737;51.578;7.268;2023-01-04T20:23:50;22.60;;;5.18;;
15271;SDS011;7737;51.578;7.268;2023-01-04T20:27:16;23.10;;;4.78;;
15271;SDS011;7737;51.578;7.268;2023-01-04T20:30:42;21.40;;;4.47;;
15271;SDS011;7737;51.578;7.268;2023-01-04T20:34:08;21.23;;;4.85;;
15271;SDS011;7737;51.578;7.268;2023-01-04T20:37:34;18.85;;;5.03;;
15271;SDS011;7737;51.578;7.268;2023-01-04T20:41:02;25.48;;;4.90;;
15271;SDS011;7737;51.578;7.268;2023-01-04T20:44:45;21.95;;;4.68;;
15271;SDS011;7737;51.578;7.268;2023-01-04T20:48:11;20.17;;;4.93;;
15271;SDS011;7737;51.578;7.268;2023-01-04T20:51:36;24.95;;;5.40;;
15271;SDS011;7737;51.578;7.268;2023-01-04T20:55:01;20.20;;;4.93;;
15271;SDS011;7737;51.578;7.268;2023-01-04T20:58:30;18.27;;;4.55;;
15271;SDS011;7737;51.578;7.268;2023-01-04T21:01:55;23.00;;;5.13;;
15271;SDS011;7737;51.578;7.268;2023-01-04T21:05:20;24.15;;;4.72;;
15271;SDS011;7737;51.578;7.268;2023-01-04T21:08:47;20.50;;;5.10;;
15271;SDS011;7737;51.578;7.268;2023-01-04T21:12:13;22.85;;;5.45;;
15271;SDS011;7737;51.578;7.268;2023-01-04T21:15:38;25.95;;;6.90;;
15271;SDS011;7737;51.578;7.268;2023-01-04T21:19:05;25.88;;;6.03;;
15271;SDS011;7737;51.578;7.268;2023-01-04T21:22:30;23.08;;;6.05;;
15271;SDS011;7737;51.578;7.268;2023-01-04T21:25:55;29.23;;;5.88;;
15271;SDS011;7737;51.578;7.268;2023-01-04T21:29:22;22.05;;;5.68;;